sensor_id;sensor_type;location;lat;lon;timestamp;pressure;altitude;pressure_sealevel;temperature;humidity
33949;BME280;20229;49.856;19.030;2023-03-14T00:00:54;99930.50;;;13.10;47.38
33949;BME280;20229;49.856;19.030;2023-03-14T00:06:08;99944.80;;;13.02;47.23
33949;BME280;20229;49.856;19.030;2023-03-14T00:11:24;99921.02;;;13.03;47.24
33949;BME280;20229;49.856;19.030;2023-03-14T00:16:38;99904.58;;;13.03;47.61
33949;BME280;20229;49.856;19.030;2023-03-14T00:21:52;99893.62;;;13.03;47.95
33949;BME280;20229;49.856;19.030;2023-03-14T00:27:05;99875.19;;;12.94;47.97
33949;BME280;20229;49.856;19.030;2023-03-14T00:32:19;99879.67;;;12.95;47.63
33949;BME280;20229;49.856;19.030;2023-03-14T00:37:33;99843.05;;;12.96;48.39
33949;BME280;20229;49.856;19.030;2023-03-14T00:42:47;99827.13;;;13.01;48.21
33949;BME280;20229;49.856;19.030;2023-03-14T00:48:00;99809.94;;;12.99;48.12
33949;BME280;20229;49.856;19.030;2023-03-14T00:53:14;99788.16;;;12.97;48.37
33949;BME280;20229;49.856;19.030;2023-03-14T00:58:28;99768.37;;;12.94;48.37
33949;BME280;20229;49.856;19.030;2023-03-14T01:03:42;99803.21;;;12.91;48.83
33949;BME280;20229;49.856;19.030;2023-03-14T01:08:57;99788.74;;;12.89;48.71
33949;BME280;20229;49.856;19.030;2023-03-14T01:14:13;99772.60;;;12.86;49.05
33949;BME280;20229;49.856;19.030;2023-03-14T01:19:27;99771.59;;;12.87;49.08
33949;BME280;20229;49.856;19.030;2023-03-14T01:24:41;99757.52;;;12.92;48.78
33949;BME280;20229;49.856;19.030;2023-03-14T01:29:55;99756.52;;;12.93;48.49
33949;BME280;20229;49.856;19.030;2023-03-14T01:35:13;99749.04;;;12.95;48.41
33949;BME280;20229;49.856;19.030;2023-03-14T01:40:26;99742.34;;;12.88;48.56
33949;BME280;20229;49.856;19.030;2023-03-14T01:51:09;99718.80;;;12.74;48.65
33949;BME280;20229;49.856;19.030;2023-03-14T01:56:24;99699.77;;;12.73;48.40
33949;BME280;20229;49.856;19.030;2023-03-14T02:01:42;99684.45;;;12.70;48.11
33949;BME280;20229;49.856;19.030;2023-03-14T02:07:03;99656.93;;;12.72;48.29
33949;BME280;20229;49.856;19.030;2023-03-14T02:12:18;99655.09;;;12.72;48.24
33949;BME280;20229;49.856;19.030;2023-03-14T02:17:36;99655.95;;;12.73;48.29
33949;BME280;20229;49.856;19.030;2023-03-14T02:22:50;99663.31;;;12.72;48.57
33949;BME280;20229;49.856;19.030;2023-03-14T02:28:05;99671.77;;;12.69;48.67
33949;BME280;20229;49.856;19.030;2023-03-14T02:33:20;99642.26;;;12.61;48.83
33949;BME280;20229;49.856;19.030;2023-03-14T02:38:45;99621.49;;;12.59;48.76
33949;BME280;20229;49.856;19.030;2023-03-14T02:44:01;99624.73;;;12.53;49.25
33949;BME280;20229;49.856;19.030;2023-03-14T02:49:16;99618.38;;;12.52;48.96
33949;BME280;20229;49.856;19.030;2023-03-14T02:54:31;99611.03;;;12.53;49.17
33949;BME280;20229;49.856;19.030;2023-03-14T02:59:44;99657.20;;;12.57;48.63
33949;BME280;20229;49.856;19.030;2023-03-14T03:04:58;99662.81;;;12.56;48.99
33949;BME280;20229;49.856;19.030;2023-03-14T03:10:12;99680.23;;;12.55;49.12
33949;BME280;20229;49.856;19.030;2023-03-14T03:15:27;99699.01;;;12.48;49.38
33949;BME280;20229;49.856;19.030;2023-03-14T03:20:42;99740.95;;;12.49;49.14
33949;BME280;20229;49.856;19.030;2023-03-14T03:25:56;99752.37;;;12.42;50.40
33949;BME280;20229;49.856;19.030;2023-03-14T03:31:12;99762.30;;;12.32;50.07
33949;BME280;20229;49.856;19.030;2023-03-14T03:36:27;99752.83;;;12.25;50.14
33949;BME280;20229;49.856;19.030;2023-03-14T03:41:41;99763.52;;;12.17;50.60
33949;BME280;20229;49.856;19.030;2023-03-14T03:46:55;99735.90;;;12.09;51.33
33949;BME280;20229;49.856;19.030;2023-03-14T03:52:08;99755.98;;;11.96;51.55
33949;BME280;20229;49.856;19.030;2023-03-14T03:57:22;99754.40;;;11.81;51.91
33949;BME280;20229;49.856;19.030;2023-03-14T04:02:36;99753.59;;;11.68;52.49
33949;BME280;20229;49.856;19.030;2023-03-14T04:07:51;99741.61;;;11.58;52.66
33949;BME280;20229;49.856;19.030;2023-03-14T04:13:04;99747.79;;;11.48;53.22
33949;BME280;20229;49.856;19.030;2023-03-14T04:18:18;99770.78;;;11.33;53.82
33949;BME280;20229;49.856;19.030;2023-03-14T04:23:33;99793.43;;;11.22;54.37
33949;BME280;20229;49.856;19.030;2023-03-14T04:28:47;99783.65;;;11.07;54.80
33949;BME280;20229;49.856;19.030;2023-03-14T04:34:01;99796.66;;;10.91;55.29
33949;BME280;20229;49.856;19.030;2023-03-14T04:39:16;99810.00;;;10.70;56.09
33949;BME280;20229;49.856;19.030;2023-03-14T04:44:30;99781.18;;;10.66;55.49
33949;BME280;20229;49.856;19.030;2023-03-14T04:49:45;99750.50;;;10.75;55.76
33949;BME280;20229;49.856;19.030;2023-03-14T04:54:59;99756.04;;;10.86;55.20
33949;BME280;20229;49.856;19.030;2023-03-14T05:00:13;99772.78;;;10.82;55.64
33949;BME280;20229;49.856;19.030;2023-03-14T05:05:26;99766.66;;;10.78;56.02
33949;BME280;20229;49.856;19.030;2023-03-14T05:10:40;99772.78;;;10.69;56.15
33949;BME280;20229;49.856;19.030;2023-03-14T05:21:19;99754.06;;;10.88;55.38
33949;BME280;20229;49.856;19.030;2023-03-14T05:26:33;99747.95;;;10.97;55.18
33949;BME280;20229;49.856;19.030;2023-03-14T05:31:47;99738.66;;;11.00;55.50
33949;BME280;20229;49.856;19.030;2023-03-14T05:37:01;99740.16;;;11.04;55.16
33949;BME280;20229;49.856;19.030;2023-03-14T05:42:15;99735.57;;;11.05;55.41
33949;BME280;20229;49.856;19.030;2023-03-14T05:47:28;99730.25;;;11.03;55.79
33949;BME280;20229;49.856;19.030;2023-03-14T05:52:42;99731.85;;;11.06;55.73
33949;BME280;20229;49.856;19.030;2023-03-14T05:57:56;99721.98;;;11.16;55.83
33949;BME280;20229;49.856;19.030;2023-03-14T06:03:10;99718.65;;;11.36;55.75
33949;BME280;20229;49.856;19.030;2023-03-14T06:08:24;99719.97;;;11.55;56.09
33949;BME280;20229;49.856;19.030;2023-03-14T06:13:38;99718.52;;;11.62;56.56
33949;BME280;20229;49.856;19.030;2023-03-14T06:18:51;99709.08;;;11.66;55.96
33949;BME280;20229;49.856;19.030;2023-03-14T06:24:06;99697.45;;;11.75;55.41
33949;BME280;20229;49.856;19.030;2023-03-14T06:29:20;99684.04;;;11.83;55.73
33949;BME280;20229;49.856;19.030;2023-03-14T06:34:34;99677.91;;;11.92;55.48
33949;BME280;20229;49.856;19.030;2023-03-14T06:39:48;99700.43;;;12.07;55.52
33949;BME280;20229;49.856;19.030;2023-03-14T06:45:05;99695.74;;;12.20;55.10
33949;BME280;20229;49.856;19.030;2023-03-14T06:50:18;99694.41;;;12.37;55.21
33949;BME280;20229;49.856;19.030;2023-03-14T06:55:32;99679.96;;;12.58;54.68
33949;BME280;20229;49.856;19.030;2023-03-14T07:00:46;99654.31;;;12.81;53.61
33949;BME280;20229;49.856;19.030;2023-03-14T07:06:00;99634.36;;;13.02;54.03
33949;BME280;20229;49.856;19.030;2023-03-14T07:11:15;99632.54;;;13.34;52.18
33949;BME280;20229;49.856;19.030;2023-03-14T07:16:29;99640.48;;;13.70;51.87
33949;BME280;20229;49.856;19.030;2023-03-14T07:21:46;99650.11;;;13.85;51.13
33949;BME280;20229;49.856;19.030;2023-03-14T07:27:00;99656.08;;;13.90;51.15
33949;BME280;20229;49.856;19.030;2023-03-14T07:32:14;99680.17;;;14.28;50.72
33949;BME280;20229;49.856;19.030;2023-03-14T07:37:29;99693.63;;;15.43;48.65
33949;BME280;20229;49.856;19.030;2023-03-14T07:42:43;99690.38;;;18.10;42.83
33949;BME280;20229;49.856;19.030;2023-03-14T07:47:58;99691.46;;;20.13;39.60
33949;BME280;20229;49.856;19.030;2023-03-14T07:53:12;99715.84;;;19.26;39.30
33949;BME280;20229;49.856;19.030;2023-03-14T07:58:25;99703.52;;;18.34;40.37
33949;BME280;20229;49.856;19.030;2023-03-14T08:03:39;99702.40;;;18.27;39.88
33949;BME280;20229;49.856;19.030;2023-03-14T08:08:53;99701.24;;;18.11;39.87
33949;BME280;20229;49.856;19.030;2023-03-14T08:14:07;99685.16;;;20.84;37.19
33949;BME280;20229;49.856;19.030;2023-03-14T08:19:21;99669.83;;;20.16;35.96
33949;BME280;20229;49.856;19.030;2023-03-14T08:24:35;99657.23;;;18.88;38.40
33949;BME280;20229;49.856;19.030;2023-03-14T08:29:49;99676.02;;;18.06;39.62
33949;BME280;20229;49.856;19.030;2023-03-14T08:35:05;99686.49;;;17.67;42.24
33949;BME280;20229;49.856;19.030;2023-03-14T08:40:20;99690.39;;;17.29;42.38
33949;BME280;20229;49.856;19.030;2023-03-14T08:45:34;99696.50;;;16.95;43.48
33949;BME280;20229;49.856;19.030;2023-03-14T08:50:48;99694.24;;;16.81;44.71
33949;BME280;20229;49.856;19.030;2023-03-14T08:56:02;99715.90;;;16.76;44.95
33949;BME280;20229;49.856;19.030;2023-03-14T09:01:18;99703.73;;;16.59;45.05
33949;BME280;20229;49.856;19.030;2023-03-14T09:06:32;99726.61;;;16.69;44.43
33949;BME280;20229;49.856;19.030;2023-03-14T09:11:46;99727.59;;;17.25;44.94
33949;BME280;20229;49.856;19.030;2023-03-14T09:17:00;99713.02;;;17.32;44.02
33949;BME280;20229;49.856;19.030;2023-03-14T09:22:13;99730.17;;;17.26;44.39
33949;BME280;20229;49.856;19.030;2023-03-14T09:31:09;99767.50;;;17.48;43.90
33949;BME280;20229;49.856;19.030;2023-03-14T09:36:30;99751.89;;;17.39;44.35
33949;BME280;20229;49.856;19.030;2023-03-14T09:41:47;99758.31;;;17.57;43.90
33949;BME280;20229;49.856;19.030;2023-03-14T09:47:05;99746.43;;;17.75;44.75
33949;BME280;20229;49.856;19.030;2023-03-14T09:52:35;99758.81;;;17.71;43.80
33949;BME280;20229;49.856;19.030;2023-03-14T09:57:46;99756.08;;;17.43;43.82
33949;BME280;20229;49.856;19.030;2023-03-14T10:08:31;99781.12;;;16.85;45.57
33949;BME280;20229;49.856;19.030;2023-03-14T10:19:16;99797.86;;;16.35;46.58
33949;BME280;20229;49.856;19.030;2023-03-14T10:24:34;99794.84;;;16.18;46.97
33949;BME280;20229;49.856;19.030;2023-03-14T10:29:54;99792.37;;;16.06;47.24
33949;BME280;20229;49.856;19.030;2023-03-14T10:35:19;99798.01;;;15.94;47.41
33949;BME280;20229;49.856;19.030;2023-03-14T10:40:39;99807.55;;;15.81;47.41
33949;BME280;20229;49.856;19.030;2023-03-14T10:45:58;99809.25;;;15.72;47.91
33949;BME280;20229;49.856;19.030;2023-03-14T10:51:25;99811.50;;;15.57;48.12
33949;BME280;20229;49.856;19.030;2023-03-14T10:56:39;99825.65;;;15.43;49.24
33949;BME280;20229;49.856;19.030;2023-03-14T11:01:59;99801.27;;;15.28;49.29
33949;BME280;20229;49.856;19.030;2023-03-14T11:12:51;99809.15;;;15.12;50.57
33949;BME280;20229;49.856;19.030;2023-03-14T11:34:29;99785.36;;;14.92;50.84
33949;BME280;20229;49.856;19.030;2023-03-14T11:39:51;99788.70;;;14.95;50.87
33949;BME280;20229;49.856;19.030;2023-03-14T11:45:56;99783.32;;;14.94;50.30
33949;BME280;20229;49.856;19.030;2023-03-14T11:51:07;99766.66;;;14.86;51.89
33949;BME280;20229;49.856;19.030;2023-03-14T11:56:29;99762.45;;;14.81;51.63
33949;BME280;20229;49.856;19.030;2023-03-14T12:07:19;99747.64;;;14.73;53.32
33949;BME280;20229;49.856;19.030;2023-03-14T12:12:34;99733.57;;;14.66;53.93
33949;BME280;20229;49.856;19.030;2023-03-14T12:17:56;99739.97;;;14.67;54.13
33949;BME280;20229;49.856;19.030;2023-03-14T12:23:11;99733.88;;;14.63;54.32
33949;BME280;20229;49.856;19.030;2023-03-14T12:28:31;99750.03;;;14.56;54.45
33949;BME280;20229;49.856;19.030;2023-03-14T12:34:00;99749.69;;;14.50;54.81
33949;BME280;20229;49.856;19.030;2023-03-14T12:39:19;99748.46;;;14.43;56.46
33949;BME280;20229;49.856;19.030;2023-03-14T12:44:45;99748.38;;;14.33;56.35
33949;BME280;20229;49.856;19.030;2023-03-14T12:55:43;99754.96;;;14.21;57.79
33949;BME280;20229;49.856;19.030;2023-03-14T13:00:56;99746.50;;;14.13;58.06
33949;BME280;20229;49.856;19.030;2023-03-14T13:06:10;99751.52;;;14.07;58.80
33949;BME280;20229;49.856;19.030;2023-03-14T13:11:25;99773.89;;;14.03;58.66
33949;BME280;20229;49.856;19.030;2023-03-14T13:16:39;99779.13;;;13.95;60.18
33949;BME280;20229;49.856;19.030;2023-03-14T13:22:02;99776.44;;;13.83;59.93
33949;BME280;20229;49.856;19.030;2023-03-14T13:27:20;99784.98;;;13.69;60.30
33949;BME280;20229;49.856;19.030;2023-03-14T13:32:41;99793.95;;;13.60;61.12
33949;BME280;20229;49.856;19.030;2023-03-14T13:38:01;99805.70;;;13.51;62.53
33949;BME280;20229;49.856;19.030;2023-03-14T13:43:23;99810.20;;;13.41;62.51
33949;BME280;20229;49.856;19.030;2023-03-14T13:54:02;99801.59;;;13.23;64.23
33949;BME280;20229;49.856;19.030;2023-03-14T13:59:25;99803.48;;;13.11;66.55
33949;BME280;20229;49.856;19.030;2023-03-14T14:04:40;99816.91;;;13.03;66.00
33949;BME280;20229;49.856;19.030;2023-03-14T14:09:54;99809.17;;;12.97;66.84
33949;BME280;20229;49.856;19.030;2023-03-14T14:15:18;99810.42;;;12.92;66.90
33949;BME280;20229;49.856;19.030;2023-03-14T14:20:42;99818.65;;;12.81;69.03
33949;BME280;20229;49.856;19.030;2023-03-14T14:25:57;99804.06;;;12.70;69.62
33949;BME280;20229;49.856;19.030;2023-03-14T14:31:22;99796.48;;;12.62;70.91
33949;BME280;20229;49.856;19.030;2023-03-14T14:37:17;99794.31;;;12.54;70.77
33949;BME280;20229;49.856;19.030;2023-03-14T14:42:32;99799.15;;;12.51;70.91
33949;BME280;20229;49.856;19.030;2023-03-14T14:47:51;99809.75;;;12.44;71.17
33949;BME280;20229;49.856;19.030;2023-03-14T14:58:36;99804.12;;;12.34;71.55
33949;BME280;20229;49.856;19.030;2023-03-14T15:03:53;99801.60;;;12.31;71.11
33949;BME280;20229;49.856;19.030;2023-03-14T15:09:10;99793.77;;;12.27;72.03
33949;BME280;20229;49.856;19.030;2023-03-14T15:14:24;99794.01;;;12.24;71.85
33949;BME280;20229;49.856;19.030;2023-03-14T15:19:38;99797.34;;;12.16;74.62
33949;BME280;20229;49.856;19.030;2023-03-14T15:24:52;99810.23;;;12.03;76.87
33949;BME280;20229;49.856;19.030;2023-03-14T15:30:10;99815.87;;;11.88;78.56
33949;BME280;20229;49.856;19.030;2023-03-14T15:35:24;99814.02;;;11.76;79.85
33949;BME280;20229;49.856;19.030;2023-03-14T15:40:39;99825.67;;;11.67;80.73
33949;BME280;20229;49.856;19.030;2023-03-14T15:45:53;99827.86;;;11.62;81.31
33949;BME280;20229;49.856;19.030;2023-03-14T15:51:07;99825.47;;;11.57;81.37
33949;BME280;20229;49.856;19.030;2023-03-14T15:56:21;99800.46;;;11.51;81.91
33949;BME280;20229;49.856;19.030;2023-03-14T16:01:40;99786.38;;;11.44;82.64
33949;BME280;20229;49.856;19.030;2023-03-14T16:06:54;99773.71;;;11.43;81.06
33949;BME280;20229;49.856;19.030;2023-03-14T16:12:09;99753.16;;;11.37;82.05
33949;BME280;20229;49.856;19.030;2023-03-14T16:17:23;99738.99;;;11.32;82.88
33949;BME280;20229;49.856;19.030;2023-03-14T16:22:38;99753.96;;;11.27;83.81
33949;BME280;20229;49.856;19.030;2023-03-14T16:27:52;99746.00;;;11.23;83.02
33949;BME280;20229;49.856;19.030;2023-03-14T16:33:06;99751.95;;;11.17;87.03
33949;BME280;20229;49.856;19.030;2023-03-14T16:38:23;99754.03;;;11.14;84.53
33949;BME280;20229;49.856;19.030;2023-03-14T16:43:37;99735.37;;;11.08;85.50
33949;BME280;20229;49.856;19.030;2023-03-14T16:48:51;99734.84;;;11.03;83.33
33949;BME280;20229;49.856;19.030;2023-03-14T16:54:05;99740.74;;;10.96;83.11
33949;BME280;20229;49.856;19.030;2023-03-14T16:59:19;99751.88;;;10.93;82.73
33949;BME280;20229;49.856;19.030;2023-03-14T17:04:39;99775.38;;;10.83;82.64
33949;BME280;20229;49.856;19.030;2023-03-14T17:09:54;99764.68;;;10.80;82.48
33949;BME280;20229;49.856;19.030;2023-03-14T17:15:10;99774.09;;;10.76;82.98
33949;BME280;20229;49.856;19.030;2023-03-14T17:20:25;99759.90;;;10.71;82.12
33949;BME280;20229;49.856;19.030;2023-03-14T17:25:39;99759.00;;;10.70;81.40
33949;BME280;20229;49.856;19.030;2023-03-14T17:31:00;99773.77;;;10.68;80.50
33949;BME280;20229;49.856;19.030;2023-03-14T17:36:15;99781.18;;;10.66;80.53
33949;BME280;20229;49.856;19.030;2023-03-14T17:41:30;99783.04;;;10.65;80.84
33949;BME280;20229;49.856;19.030;2023-03-14T17:46:49;99798.23;;;10.57;80.09
33949;BME280;20229;49.856;19.030;2023-03-14T17:52:07;99790.26;;;10.53;80.89
33949;BME280;20229;49.856;19.030;2023-03-14T17:57:25;99790.55;;;10.49;80.31
33949;BME280;20229;49.856;19.030;2023-03-14T18:02:39;99779.55;;;10.50;80.39
33949;BME280;20229;49.856;19.030;2023-03-14T18:07:57;99805.11;;;10.49;80.56
33949;BME280;20229;49.856;19.030;2023-03-14T18:13:11;99811.52;;;10.48;79.90
33949;BME280;20229;49.856;19.030;2023-03-14T18:18:26;99829.30;;;10.41;80.08
33949;BME280;20229;49.856;19.030;2023-03-14T18:23:43;99848.27;;;10.30;79.89
33949;BME280;20229;49.856;19.030;2023-03-14T18:28:57;99854.06;;;10.25;80.28
33949;BME280;20229;49.856;19.030;2023-03-14T18:34:11;99857.66;;;10.26;80.39
33949;BME280;20229;49.856;19.030;2023-03-14T18:39:25;99862.13;;;10.27;80.22
33949;BME280;20229;49.856;19.030;2023-03-14T18:44:40;99867.58;;;10.27;79.95
33949;BME280;20229;49.856;19.030;2023-03-14T18:49:54;99877.71;;;10.25;80.53
33949;BME280;20229;49.856;19.030;2023-03-14T18:55:09;99876.13;;;10.21;80.65
33949;BME280;20229;49.856;19.030;2023-03-14T19:00:24;99873.73;;;10.16;80.31
33949;BME280;20229;49.856;19.030;2023-03-14T19:05:43;99893.34;;;10.09;79.69
33949;BME280;20229;49.856;19.030;2023-03-14T19:10:58;99893.09;;;9.99;79.97
33949;BME280;20229;49.856;19.030;2023-03-14T19:16:16;99901.78;;;9.91;79.79
33949;BME280;20229;49.856;19.030;2023-03-14T19:21:33;99900.32;;;9.86;80.39
33949;BME280;20229;49.856;19.030;2023-03-14T19:26:48;99906.01;;;9.83;79.97
33949;BME280;20229;49.856;19.030;2023-03-14T19:32:02;99901.83;;;9.77;80.28
33949;BME280;20229;49.856;19.030;2023-03-14T19:37:16;99906.48;;;9.75;79.80
33949;BME280;20229;49.856;19.030;2023-03-14T19:42:31;99899.48;;;9.71;79.66
33949;BME280;20229;49.856;19.030;2023-03-14T19:47:46;99908.46;;;9.73;79.79
33949;BME280;20229;49.856;19.030;2023-03-14T19:53:02;99906.71;;;9.72;79.45
33949;BME280;20229;49.856;19.030;2023-03-14T19:58:15;99915.28;;;9.66;79.66
33949;BME280;20229;49.856;19.030;2023-03-14T20:03:30;99910.81;;;9.65;79.21
33949;BME280;20229;49.856;19.030;2023-03-14T20:08:44;99912.75;;;9.63;78.91
33949;BME280;20229;49.856;19.030;2023-03-14T20:13:58;99929.50;;;9.56;78.81
33949;BME280;20229;49.856;19.030;2023-03-14T20:19:12;99936.42;;;9.48;78.91
33949;BME280;20229;49.856;19.030;2023-03-14T20:24:27;99932.43;;;9.39;78.73
33949;BME280;20229;49.856;19.030;2023-03-14T20:29:41;99927.09;;;9.38;78.81
33949;BME280;20229;49.856;19.030;2023-03-14T20:34:56;99916.09;;;9.39;78.86
33949;BME280;20229;49.856;19.030;2023-03-14T20:40:11;99917.84;;;9.40;78.24
33949;BME280;20229;49.856;19.030;2023-03-14T20:45:26;99918.80;;;9.39;78.52
33949;BME280;20229;49.856;19.030;2023-03-14T20:50:40;99918.80;;;9.39;78.51
33949;BME280;20229;49.856;19.030;2023-03-14T20:55:55;99914.91;;;9.43;78.25
33949;BME280;20229;49.856;19.030;2023-03-14T21:01:09;99918.42;;;9.45;77.84
33949;BME280;20229;49.856;19.030;2023-03-14T21:06:23;99931.36;;;9.42;78.44
33949;BME280;20229;49.856;19.030;2023-03-14T21:11:38;99923.30;;;9.40;78.39
33949;BME280;20229;49.856;19.030;2023-03-14T21:17:00;99926.98;;;9.39;77.85
33949;BME280;20229;49.856;19.030;2023-03-14T21:22:14;99930.88;;;9.35;77.65
33949;BME280;20229;49.856;19.030;2023-03-14T21:27:31;99952.86;;;9.32;77.91
33949;BME280;20229;49.856;19.030;2023-03-14T21:32:44;99957.62;;;9.28;78.41
33949;BME280;20229;49.856;19.030;2023-03-14T21:37:58;99977.55;;;9.29;79.15
33949;BME280;20229;49.856;19.030;2023-03-14T21:43:12;99993.45;;;9.37;78.47
33949;BME280;20229;49.856;19.030;2023-03-14T21:48:30;100003.05;;;9.42;80.04
33949;BME280;20229;49.856;19.030;2023-03-14T21:53:44;100012.41;;;9.52;78.47
33949;BME280;20229;49.856;19.030;2023-03-14T21:58:58;100023.49;;;9.64;78.24
33949;BME280;20229;49.856;19.030;2023-03-14T22:04:12;100023.68;;;9.75;78.00
33949;BME280;20229;49.856;19.030;2023-03-14T22:09:28;100027.01;;;9.80;77.85
33949;BME280;20229;49.856;19.030;2023-03-14T22:14:42;100033.63;;;9.90;77.08
33949;BME280;20229;49.856;19.030;2023-03-14T22:19:57;100030.48;;;9.96;76.77
33949;BME280;20229;49.856;19.030;2023-03-14T22:25:10;100043.64;;;10.04;76.83
33949;BME280;20229;49.856;19.030;2023-03-14T22:30:24;100043.45;;;10.07;76.83
33949;BME280;20229;49.856;19.030;2023-03-14T22:35:38;100050.33;;;10.13;76.90
33949;BME280;20229;49.856;19.030;2023-03-14T22:40:53;100048.40;;;10.15;77.05
33949;BME280;20229;49.856;19.030;2023-03-14T22:46:08;100060.06;;;10.17;76.66
33949;BME280;20229;49.856;19.030;2023-03-14T22:51:21;100065.33;;;10.20;76.82
33949;BME280;20229;49.856;19.030;2023-03-14T22:56:35;100083.43;;;10.21;76.81
33949;BME280;20229;49.856;19.030;2023-03-14T23:01:49;100093.38;;;10.22;76.86
33949;BME280;20229;49.856;19.030;2023-03-14T23:07:03;100120.66;;;10.22;77.05
33949;BME280;20229;49.856;19.030;2023-03-14T23:12:16;100184.46;;;10.19;77.68
33949;BME280;20229;49.856;19.030;2023-03-14T23:17:30;100228.38;;;10.00;77.28
33949;BME280;20229;49.856;19.030;2023-03-14T23:22:45;100252.92;;;9.70;78.81
33949;BME280;20229;49.856;19.030;2023-03-14T23:27:58;100261.27;;;9.37;79.17
33949;BME280;20229;49.856;19.030;2023-03-14T23:33:13;100278.85;;;9.16;79.54
33949;BME280;20229;49.856;19.030;2023-03-14T23:38:27;100313.79;;;8.92;80.60
33949;BME280;20229;49.856;19.030;2023-03-14T23:43:46;100342.09;;;8.72;81.81
33949;BME280;20229;49.856;19.030;2023-03-14T23:49:00;100373.28;;;8.49;80.39
33949;BME280;20229;49.856;19.030;2023-03-14T23:54:14;100411.01;;;8.20;79.82
33949;BME280;20229;49.856;19.030;2023-03-14T23:59:27;100453.61;;;8.02;78.79
